Chatuge Observed Data For Previous 48 Hours

Caption
Day and Hour Reservoir Elevation (behind dam)* Tailwater Elevation (below dam)* Average Hourly Discharge*
9/20/2018 2 AM EDT 1,921.46 1,802.68 2
9/20/2018 3 AM EDT 1,921.46 1,804.16 775
9/20/2018 4 AM EDT 1,921.46 1,803.36 0
9/20/2018 5 AM EDT 1,921.46 1,803.01 0
9/20/2018 6 AM EDT 1,921.46 1,802.67 0
9/20/2018 7 AM EDT 1,921.47 1,802.34 0
9/20/2018 8 AM EDT 1,921.47 1,802.31 0
9/20/2018 9 AM EDT 1,921.47 1,802.36 0
9/20/2018 10 AM EDT 1,921.47 1,802.36 0
9/20/2018 11 AM EDT 1,921.47 1,802.36 0
9/20/2018 12 PM EDT 1,921.47 1,802.32 0
9/20/2018 1 PM EDT 1,921.47 1,802.35 0
9/20/2018 2 PM EDT 1,921.47 1,803.70 23
9/20/2018 3 PM EDT 1,921.47 1,805.69 1,257
9/20/2018 4 PM EDT 1,921.47 1,805.97 1,250
9/20/2018 5 PM EDT 1,921.46 1,805.97 1,255
9/20/2018 6 PM EDT 1,921.45 1,805.97 1,246
9/20/2018 7 PM EDT 1,921.44 1,805.94 1,245
9/20/2018 8 PM EDT 1,921.43 1,803.58 35
9/20/2018 9 PM EDT 1,921.42 1,803.18 0
9/20/2018 10 PM EDT 1,921.42 1,802.82 0
9/20/2018 11 PM EDT 1,921.42 1,802.44 0
9/21/2018 12 AM EDT 1,921.42 1,802.32 0
9/21/2018 1 AM EDT 1,921.42 1,802.32 0
9/21/2018 2 AM EDT 1,921.42 1,802.33 0
9/21/2018 3 AM EDT 1,921.43 1,802.35 0
9/21/2018 4 AM EDT 1,921.43 1,802.35 0
9/21/2018 5 AM EDT 1,921.44 1,802.32 0
9/21/2018 6 AM EDT 1,921.44 1,803.62 32
9/21/2018 7 AM EDT 1,921.44 1,804.00 774
9/21/2018 8 AM EDT 1,921.44 1,803.33 0
9/21/2018 9 AM EDT 1,921.44 1,802.94 0
9/21/2018 10 AM EDT 1,921.44 1,802.60 0
9/21/2018 11 AM EDT 1,921.44 1,802.32 0
9/21/2018 12 PM EDT 1,921.44 1,802.32 0
9/21/2018 1 PM EDT 1,921.44 1,804.26 241
9/21/2018 2 PM EDT 1,921.44 1,805.73 1,242
9/21/2018 3 PM EDT 1,921.44 1,805.89 1,237
9/21/2018 4 PM EDT 1,921.43 1,805.88 1,239
9/21/2018 5 PM EDT 1,921.41 1,805.91 1,239
9/21/2018 6 PM EDT 1,921.39 1,805.94 1,237
9/21/2018 7 PM EDT 1,921.38 1,805.93 1,231
9/21/2018 8 PM EDT 1,921.37 1,803.56 35
9/21/2018 9 PM EDT 1,921.37 1,803.13 0
9/21/2018 10 PM EDT 1,921.37 1,802.80 0
9/21/2018 11 PM EDT 1,921.37 1,802.44 0
9/22/2018 12 AM EDT 1,921.37 1,802.32 0
9/22/2018 1 AM EDT 1,921.37 1,802.33 0
9/22/2018 2 AM EDT 1,921.37 1,802.30 0
9/22/2018 3 AM EDT 1,921.37 1,802.33 0
9/22/2018 4 AM EDT 1,921.37 1,802.32 0
9/22/2018 5 AM EDT 1,921.37 1,802.32 0
9/22/2018 6 AM EDT 1,921.37 1,803.79 43
9/22/2018 7 AM EDT 1,921.37 1,804.00 756

Elevations are in feet above sea level. Discharges are in cubic feet per second and are reported at the end of the hour.